Aviation Digital Data Service (ADDS)

Output produced by METARs form (0123 UTC 23 July 2017)
found at http://www.aviationweather.gov/adds/metars/
 
DIBK 230100Z 20006KT 9999 FEW010 SCT100 24/21 Q1017 NSIG
TAF DIBK 222300Z 2300/2324 20006KT 8000 SCT014 
     PROB30 
     TEMPO 2301/2306 TS SCT014 FEW030CB 
     PROB30 
     TEMPO 2303/2306 4000 TSRA BKN013 FEW030CB 
     TEMPO 2312/2318 BKN014 
     PROB30 
     TEMPO 2320/2324 TS SCT015 FEW030CB
       
DIAP 230100Z 23007KT 8000 SCT012 25/24 Q1015 NOSIG
TAF DIAP 222300Z 2300/2406 24006KT 8000 SCT012 
     TEMPO 2304/2310 BKN010 
     PROB30 
     TEMPO 2305/2309 4000 DZRA BKN010 OVC030 
     BECMG 2308/2311 23010KT 
     PROB30 
     TEMPO 2316/2322 TS SCT012 FEW020CB 
     BECMG 2320/2324 22004KT
       
TAF DIYO 222300Z 2300/2324 20006KT 8000 SCT013 
     TEMPO 2304/2310 BKN012 
     PROB30 
     TEMPO 2304/2307 4000 RA BKN012 
     TEMPO 2312/2318 BKN013 
     PROB30 2320/2324 TS SCT012 FEW025CB